createdAt,value
2022-08-17T00:01:45.547Z,44.36
2022-08-17T00:04:19.474Z,44.23
2022-08-17T00:06:49.134Z,44.17
2022-08-17T00:09:18.382Z,44.01
2022-08-17T00:12:40.868Z,43.67
2022-08-17T00:14:33.585Z,43.88
2022-08-17T00:17:00.160Z,44.12
2022-08-17T00:19:27.098Z,43.97
2022-08-17T00:22:28.691Z,44.02
2022-08-17T00:24:43.168Z,44.01
2022-08-17T00:27:09.742Z,43.87
2022-08-17T00:29:36.318Z,44.03
2022-08-17T00:33:14.414Z,43.96
2022-08-17T00:34:50.029Z,44.10
2022-08-17T00:37:16.735Z,43.91
2022-08-17T00:39:43.508Z,44.18
2022-08-17T00:42:14.733Z,44.36
2022-08-17T00:44:41.320Z,44.17
2022-08-17T00:47:07.914Z,44.53
2022-08-17T00:49:34.486Z,44.13
2022-08-17T00:52:10.802Z,44.23
2022-08-17T00:54:41.679Z,44.83
2022-08-17T00:57:25.523Z,44.40
2022-08-17T01:00:01.967Z,44.58
2022-08-17T01:02:34.357Z,44.12
2022-08-17T01:05:09.284Z,44.24
2022-08-17T01:07:37.881Z,44.53
2022-08-17T01:10:07.055Z,44.29
2022-08-17T01:12:35.252Z,44.86
2022-08-17T01:15:01.840Z,44.55
2022-08-17T01:17:28.556Z,44.76
2022-08-17T01:19:55.132Z,44.65
2022-08-17T01:22:23.787Z,45.01
2022-08-17T01:24:56.569Z,45.31
2022-08-17T01:27:24.463Z,45.28
2022-08-17T01:29:56.851Z,45.12
2022-08-17T01:32:23.652Z,44.81
2022-08-17T01:34:50.902Z,45.31
2022-08-17T01:37:18.545Z,44.96
2022-08-17T01:39:54.996Z,44.67
2022-08-17T01:42:24.597Z,45.27
2022-08-17T01:44:56.662Z,45.16
2022-08-17T01:47:23.727Z,45.04
2022-08-17T01:49:50.792Z,44.87
2022-08-17T01:52:17.887Z,44.95
2022-08-17T01:54:47.361Z,44.99
2022-08-17T01:57:14.189Z,44.95
2022-08-17T01:59:40.782Z,45.28
2022-08-17T02:02:07.562Z,45.25
2022-08-17T02:04:34.647Z,44.92
2022-08-17T02:07:01.495Z,44.72
2022-08-17T02:09:29.888Z,44.83
2022-08-17T02:11:58.425Z,44.96
2022-08-17T02:14:25.869Z,45.03
2022-08-17T02:16:53.101Z,45.08
2022-08-17T02:19:20.329Z,45.20
2022-08-17T02:21:48.812Z,45.11
2022-08-17T02:24:58.187Z,44.66
2022-08-17T02:27:14.656Z,44.93
2022-08-17T02:29:41.277Z,44.55
2022-08-17T02:32:20.909Z,44.78
2022-08-17T02:34:54.401Z,44.60
2022-08-17T02:37:21.027Z,44.93
2022-08-17T02:39:47.863Z,45.27
2022-08-17T02:42:15.070Z,44.86
2022-08-17T02:44:41.624Z,45.44
2022-08-17T02:47:09.693Z,45.37
2022-08-17T02:49:36.936Z,45.00
2022-08-17T02:52:05.406Z,44.94
2022-08-17T02:54:39.618Z,44.94
2022-08-17T02:57:09.649Z,45.19
2022-08-17T02:59:36.380Z,45.20
2022-08-17T03:02:04.219Z,44.83
2022-08-17T03:04:31.242Z,45.24
2022-08-17T03:07:01.873Z,45.20
2022-08-17T03:09:28.441Z,45.50
2022-08-17T03:11:55.856Z,45.16
2022-08-17T03:14:26.225Z,45.32
2022-08-17T03:16:53.033Z,45.26
2022-08-17T03:19:19.630Z,45.35
2022-08-17T03:21:46.180Z,45.34
2022-08-17T03:24:21.598Z,45.32
2022-08-17T03:26:55.278Z,45.08
2022-08-17T03:29:21.868Z,45.55
2022-08-17T03:31:49.620Z,45.56
2022-08-17T03:34:16.962Z,45.39
2022-08-17T03:36:43.724Z,45.60
2022-08-17T03:39:10.373Z,45.41
2022-08-17T03:41:38.008Z,45.54
2022-08-17T03:44:04.593Z,45.41
2022-08-17T03:46:49.773Z,45.81
2022-08-17T03:49:34.724Z,45.63
2022-08-17T03:52:19.811Z,46.19
2022-08-17T03:55:05.176Z,45.47
2022-08-17T03:57:32.159Z,45.30
2022-08-17T03:59:59.820Z,45.40
2022-08-17T04:02:32.172Z,45.27
2022-08-17T04:04:59.340Z,45.48
2022-08-17T04:07:28.348Z,45.40
2022-08-17T04:09:55.078Z,45.23
2022-08-17T04:12:23.043Z,45.69
2022-08-17T04:14:52.214Z,45.50
2022-08-17T04:17:27.458Z,45.91
2022-08-17T04:19:54.903Z,45.86
2022-08-17T04:22:32.597Z,45.61
2022-08-17T04:25:16.604Z,45.88
2022-08-17T04:27:43.258Z,45.88
2022-08-17T04:30:10.400Z,45.63
2022-08-17T04:33:05.320Z,45.53
2022-08-17T04:35:39.651Z,45.56
2022-08-17T04:38:08.282Z,46.22
2022-08-17T04:40:53.591Z,45.65
2022-08-17T04:43:23.396Z,46.05
2022-08-17T04:45:56.143Z,45.93
2022-08-17T04:48:29.828Z,45.87
2022-08-17T04:51:09.892Z,46.44
2022-08-17T04:53:37.719Z,46.09
2022-08-17T04:56:05.149Z,46.06
2022-08-17T04:58:31.849Z,46.11
2022-08-17T05:00:58.519Z,46.38
2022-08-17T05:03:26.035Z,46.32
2022-08-17T05:05:53.747Z,46.22
2022-08-17T05:08:21.008Z,46.13
2022-08-17T05:10:48.878Z,46.33
2022-08-17T05:13:21.425Z,46.32
2022-08-17T05:15:50.141Z,46.25
2022-08-17T05:18:17.489Z,46.24
2022-08-17T05:20:44.593Z,46.40
2022-08-17T05:23:13.459Z,46.61
2022-08-17T05:25:43.178Z,46.41
2022-08-17T05:28:16.014Z,45.95
2022-08-17T05:30:43.442Z,46.17
2022-08-17T05:33:13.629Z,46.55
2022-08-17T05:35:44.412Z,46.53
2022-08-17T05:38:11.461Z,46.41
2022-08-17T05:40:38.371Z,46.98
2022-08-17T05:43:17.548Z,46.85
2022-08-17T05:45:55.486Z,46.88
2022-08-17T05:48:39.116Z,47.25
2022-08-17T05:51:53.747Z,46.80
2022-08-17T05:54:51.872Z,46.65
2022-08-17T05:57:53.264Z,46.87
2022-08-17T06:00:26.322Z,46.90
2022-08-17T06:03:04.645Z,46.80
2022-08-17T06:06:03.669Z,46.59
2022-08-17T06:08:45.508Z,46.69
2022-08-17T06:11:19.892Z,46.63
2022-08-17T06:13:53.563Z,46.81
2022-08-17T06:16:33.309Z,46.44
2022-08-17T06:19:16.216Z,46.58
2022-08-17T06:21:45.362Z,46.54
2022-08-17T06:24:37.980Z,46.50
2022-08-17T06:27:10.116Z,46.50
2022-08-17T06:30:09.893Z,46.78
2022-08-17T06:32:38.495Z,47.05
2022-08-17T06:35:07.526Z,46.54
2022-08-17T06:37:42.564Z,47.23
2022-08-17T06:40:15.765Z,48.24
2022-08-17T06:43:06.625Z,48.91
2022-08-17T06:45:57.853Z,50.11
2022-08-17T06:48:29.001Z,48.62
2022-08-17T06:51:00.273Z,48.27
2022-08-17T06:53:40.711Z,48.78
2022-08-17T06:56:13.672Z,48.78
2022-08-17T06:58:41.956Z,48.61
2022-08-17T07:01:23.176Z,48.36
2022-08-17T07:03:56.061Z,48.44
2022-08-17T07:06:26.545Z,48.29
2022-08-17T07:08:59.187Z,49.65
2022-08-17T07:11:50.679Z,48.52
2022-08-17T07:14:37.849Z,50.22
2022-08-17T07:17:10.770Z,49.68
2022-08-17T07:19:41.097Z,50.18
2022-08-17T07:22:16.977Z,49.76
2022-08-17T07:24:45.147Z,49.67
2022-08-17T07:27:21.370Z,49.48
2022-08-17T07:30:11.975Z,49.42
2022-08-17T07:32:45.393Z,49.21
2022-08-17T07:35:17.867Z,49.47
2022-08-17T07:38:25.603Z,49.32
2022-08-17T07:41:05.327Z,49.46
2022-08-17T07:43:39.429Z,49.58
2022-08-17T07:46:37.094Z,49.48
2022-08-17T07:49:03.593Z,49.15
2022-08-17T07:51:33.404Z,48.84
2022-08-17T07:54:14.210Z,49.33
2022-08-17T07:57:04.553Z,49.04
2022-08-17T07:59:34.025Z,48.93
2022-08-17T08:02:05.414Z,48.89
2022-08-17T08:07:48.097Z,49.00
2022-08-17T08:10:30.917Z,48.76
2022-08-17T08:13:06.385Z,49.15
2022-08-17T08:15:36.971Z,49.18
2022-08-17T08:18:06.715Z,49.43
2022-08-17T08:20:51.358Z,49.52
2022-08-17T08:23:39.257Z,49.50
2022-08-17T08:26:15.190Z,49.20
2022-08-17T08:28:47.845Z,49.41
2022-08-17T08:31:43.182Z,49.76
2022-08-17T08:34:44.977Z,49.55
2022-08-17T08:37:32.588Z,49.48
2022-08-17T08:40:31.420Z,49.05
2022-08-17T08:43:32.260Z,49.08
2022-08-17T08:46:23.519Z,49.24
2022-08-17T08:49:09.961Z,49.65
2022-08-17T08:51:47.044Z,49.53
2022-08-17T08:54:34.719Z,49.12
2022-08-17T08:57:24.195Z,49.21
2022-08-17T09:00:22.960Z,48.63
2022-08-17T09:02:52.499Z,49.03
2022-08-17T09:05:52.798Z,48.71
2022-08-17T09:08:19.307Z,49.19
2022-08-17T09:11:05.412Z,48.70
2022-08-17T09:13:41.020Z,49.56
2022-08-17T09:16:23.093Z,49.20
2022-08-17T09:19:03.286Z,49.10
2022-08-17T09:21:49.747Z,48.95
2022-08-17T09:24:41.741Z,49.09
2022-08-17T09:27:21.465Z,49.14
2022-08-17T09:29:50.204Z,49.12
2022-08-17T09:32:22.739Z,49.12
2022-08-17T09:34:55.292Z,48.91
2022-08-17T09:37:37.956Z,48.74
2022-08-17T09:40:14.116Z,49.03
2022-08-17T09:42:50.603Z,48.92
2022-08-17T09:45:50.622Z,48.84
2022-08-17T09:48:55.405Z,49.00
2022-08-17T09:51:35.452Z,48.97
2022-08-17T09:54:34.891Z,49.55
2022-08-17T09:57:32.374Z,49.54
2022-08-17T10:00:13.436Z,49.28
2022-08-17T10:02:49.635Z,49.81
2022-08-17T10:05:47.559Z,49.79
2022-08-17T10:08:25.609Z,49.76
2022-08-17T10:11:16.855Z,49.76
2022-08-17T10:13:53.336Z,49.98
2022-08-17T10:16:38.255Z,49.74
2022-08-17T10:19:31.376Z,49.79
2022-08-17T10:22:34.735Z,49.71
2022-08-17T10:25:24.842Z,49.72
2022-08-17T10:28:05.501Z,49.62
2022-08-17T10:30:33.676Z,49.36
2022-08-17T10:33:03.872Z,49.52
2022-08-17T10:35:44.511Z,49.37
2022-08-17T10:38:29.565Z,49.13
2022-08-17T10:41:04.782Z,49.02
2022-08-17T10:43:37.203Z,48.90
2022-08-17T10:46:37.106Z,49.09
2022-08-17T10:49:23.599Z,48.73
2022-08-17T10:51:55.431Z,48.86
2022-08-17T10:54:24.735Z,48.90
2022-08-17T10:56:56.169Z,48.86
2022-08-17T10:59:34.835Z,48.82
2022-08-17T11:02:04.009Z,48.88
2022-08-17T11:04:58.547Z,48.71
2022-08-17T11:08:05.309Z,49.08
2022-08-17T11:10:51.949Z,48.83
2022-08-17T11:14:00.394Z,48.83
2022-08-17T11:16:41.340Z,49.48
2022-08-17T11:19:21.240Z,49.08
2022-08-17T11:22:14.086Z,48.87
2022-08-17T11:24:44.621Z,49.34
2022-08-17T11:27:32.633Z,49.09
2022-08-17T11:30:05.034Z,48.98
2022-08-17T11:32:37.443Z,49.25
2022-08-17T11:35:22.105Z,49.20
2022-08-17T11:38:13.875Z,49.43
2022-08-17T11:41:08.142Z,49.46
2022-08-17T11:43:45.752Z,49.26
2022-08-17T11:46:24.373Z,48.99
2022-08-17T11:49:26.853Z,49.14
2022-08-17T11:52:00.401Z,49.42
2022-08-17T11:54:33.668Z,49.06
2022-08-17T11:57:21.680Z,48.82
2022-08-17T11:59:48.243Z,48.55
2022-08-17T12:02:32.924Z,48.52
2022-08-17T12:05:27.579Z,48.68
2022-08-17T12:08:01.374Z,48.72
2022-08-17T12:10:32.926Z,48.66
2022-08-17T12:13:06.093Z,48.69
2022-08-17T12:15:34.824Z,48.63
2022-08-17T12:18:01.388Z,49.06
2022-08-17T12:20:35.639Z,48.45
2022-08-17T12:23:17.239Z,48.30
2022-08-17T12:25:49.917Z,48.32
2022-08-17T12:28:34.011Z,48.32
2022-08-17T12:31:03.499Z,47.74
2022-08-17T12:33:30.546Z,48.47
2022-08-17T12:36:04.453Z,47.99
2022-08-17T12:38:36.383Z,47.91
2022-08-17T12:41:25.555Z,48.30
2022-08-17T12:44:02.296Z,48.15
2022-08-17T12:46:34.883Z,48.41
2022-08-17T12:49:15.796Z,48.58
2022-08-17T12:51:46.393Z,48.79
2022-08-17T12:54:34.452Z,48.87
2022-08-17T12:57:14.703Z,48.61
2022-08-17T12:59:49.537Z,48.43
2022-08-17T13:02:28.364Z,48.58
2022-08-17T13:04:57.349Z,48.48
2022-08-17T13:07:29.263Z,48.61
2022-08-17T13:09:55.935Z,48.18
2022-08-17T13:12:33.723Z,48.35
2022-08-17T13:15:00.598Z,47.92
2022-08-17T13:17:35.355Z,48.41
2022-08-17T13:20:05.475Z,47.92
2022-08-17T13:22:32.549Z,48.10
2022-08-17T13:25:05.482Z,47.82
2022-08-17T13:27:33.333Z,47.71
2022-08-17T13:30:08.480Z,47.85
2022-08-17T13:32:36.085Z,47.80
2022-08-17T13:35:32.804Z,47.86
2022-08-17T13:38:47.323Z,47.80
2022-08-17T13:41:34.167Z,47.81
2022-08-17T13:44:01.225Z,47.57
2022-08-17T13:46:32.807Z,47.54
2022-08-17T13:49:00.792Z,47.68
2022-08-17T13:51:31.279Z,47.73
2022-08-17T13:53:59.714Z,47.53
2022-08-17T13:57:07.425Z,47.35
2022-08-17T13:59:54.370Z,47.58
2022-08-17T14:02:22.278Z,47.71
2022-08-17T14:04:48.954Z,47.58
2022-08-17T14:07:16.076Z,47.58
2022-08-17T14:09:53.636Z,47.30
2022-08-17T14:12:23.447Z,47.63
2022-08-17T14:14:50.341Z,47.75
2022-08-17T14:17:16.913Z,47.58
2022-08-17T14:19:43.533Z,47.25
2022-08-17T14:22:19.142Z,47.36
2022-08-17T14:24:46.160Z,47.37
2022-08-17T14:27:12.731Z,47.29
2022-08-17T14:29:41.177Z,47.47
2022-08-17T14:32:18.287Z,47.26
2022-08-17T14:34:46.078Z,47.40
2022-08-17T14:37:12.840Z,47.40
2022-08-17T14:39:39.492Z,47.59
2022-08-17T14:42:06.335Z,47.37
2022-08-17T14:44:32.948Z,47.32
2022-08-17T14:46:59.508Z,47.20
2022-08-17T14:49:26.255Z,47.33
2022-08-17T14:51:52.958Z,47.03
2022-08-17T14:54:25.654Z,47.38
2022-08-17T14:57:22.374Z,47.25
2022-08-17T14:59:51.760Z,46.81
2022-08-17T15:02:29.679Z,46.97
2022-08-17T15:05:02.129Z,47.01
2022-08-17T15:07:31.009Z,46.82
2022-08-17T15:09:58.747Z,46.79
2022-08-17T15:12:32.074Z,46.66
2022-08-17T15:15:00.702Z,46.67
2022-08-17T15:17:27.372Z,46.74
2022-08-17T15:20:18.245Z,46.72
2022-08-17T15:22:45.912Z,46.75
2022-08-17T15:25:13.815Z,46.56
2022-08-17T15:27:40.574Z,46.72
2022-08-17T15:30:08.578Z,46.54
2022-08-17T15:32:38.197Z,46.36
2022-08-17T15:35:06.829Z,46.62
2022-08-17T15:37:33.469Z,46.87
2022-08-17T15:40:03.579Z,46.60
2022-08-17T15:42:30.228Z,46.54
2022-08-17T15:44:57.388Z,46.58
2022-08-17T15:47:24.611Z,46.75
2022-08-17T15:49:52.768Z,46.67
2022-08-17T15:52:24.158Z,46.57
2022-08-17T15:54:51.838Z,46.57
2022-08-17T15:57:19.261Z,46.59
2022-08-17T15:59:46.781Z,46.55
2022-08-17T16:03:13.847Z,46.70
2022-08-17T16:05:17.442Z,46.66
2022-08-17T16:07:46.727Z,46.58
2022-08-17T16:10:18.651Z,46.93
2022-08-17T16:12:46.727Z,46.46
2022-08-17T16:15:14.049Z,46.64
2022-08-17T16:17:41.546Z,46.73
2022-08-17T16:20:10.438Z,46.35
2022-08-17T16:22:48.389Z,46.66
2022-08-17T16:25:52.129Z,46.57
2022-08-17T16:28:11.713Z,46.78
2022-08-17T16:30:38.432Z,46.51
2022-08-17T16:33:05.230Z,46.82
2022-08-17T16:35:32.550Z,46.59
2022-08-17T16:37:59.177Z,46.33
2022-08-17T16:40:28.564Z,46.34
2022-08-17T16:42:55.562Z,46.67
2022-08-17T16:45:31.409Z,46.56
2022-08-17T16:47:59.180Z,46.72
2022-08-17T16:50:26.037Z,46.75
2022-08-17T16:52:52.856Z,46.79
2022-08-17T16:55:21.295Z,47.23
2022-08-17T16:57:50.628Z,46.85
2022-08-17T17:00:18.265Z,46.66
2022-08-17T17:02:47.320Z,46.79
2022-08-17T17:05:27.673Z,46.62
2022-08-17T17:08:01.418Z,47.00
2022-08-17T17:10:38.735Z,46.56
2022-08-17T17:13:10.644Z,46.74
2022-08-17T17:16:18.509Z,46.65
2022-08-17T17:19:09.165Z,46.63
2022-08-17T17:21:46.743Z,46.72
2022-08-17T17:24:17.188Z,46.72
2022-08-17T17:27:01.732Z,46.84
2022-08-17T17:29:49.889Z,46.43
2022-08-17T17:32:17.274Z,46.46
2022-08-17T17:34:50.891Z,46.80
2022-08-17T17:37:22.886Z,46.64
2022-08-17T17:39:55.351Z,46.69
2022-08-17T17:42:24.683Z,46.75
2022-08-17T17:45:25.848Z,46.83
2022-08-17T17:47:53.248Z,46.65
2022-08-17T17:50:21.784Z,46.67
2022-08-17T17:52:57.161Z,46.69
2022-08-17T17:55:32.965Z,46.56
2022-08-17T17:58:28.376Z,46.77
2022-08-17T18:01:25.801Z,46.81
2022-08-17T18:04:08.300Z,46.43
2022-08-17T18:07:09.925Z,46.56
2022-08-17T18:10:29.497Z,46.46
2022-08-17T18:13:21.573Z,46.70
2022-08-17T18:15:54.458Z,46.90
2022-08-17T18:18:37.853Z,46.69
2022-08-17T18:21:19.888Z,46.77
2022-08-17T18:24:01.130Z,46.58
2022-08-17T18:26:40.189Z,46.61
2022-08-17T18:29:30.459Z,46.48
2022-08-17T18:32:21.734Z,46.55
2022-08-17T18:34:52.659Z,46.59
2022-08-17T18:37:52.763Z,46.59
2022-08-17T18:40:19.642Z,46.88
2022-08-17T18:42:58.351Z,46.81
2022-08-17T18:45:52.365Z,46.60
2022-08-17T18:48:33.031Z,46.66
2022-08-17T18:51:20.404Z,46.55
2022-08-17T18:54:14.457Z,46.52
2022-08-17T18:56:58.803Z,46.66
2022-08-17T18:59:26.956Z,47.04
2022-08-17T19:01:58.467Z,46.63
2022-08-17T19:04:37.433Z,46.51
2022-08-17T19:07:08.807Z,46.73
2022-08-17T19:09:44.693Z,46.73
2022-08-17T19:12:27.011Z,46.83
2022-08-17T19:14:55.972Z,46.70
2022-08-17T19:17:38.014Z,46.88
2022-08-17T19:20:12.835Z,46.73
2022-08-17T19:22:54.517Z,46.59
2022-08-17T19:25:27.017Z,46.70
2022-08-17T19:28:21.494Z,46.63
2022-08-17T19:30:59.451Z,46.70
2022-08-17T19:33:26.490Z,46.61
2022-08-17T19:35:57.377Z,46.95
2022-08-17T19:38:34.165Z,46.73
2022-08-17T19:41:09.710Z,46.38
2022-08-17T19:44:01.126Z,46.44
2022-08-17T19:46:36.061Z,46.41
2022-08-17T19:49:46.361Z,46.25
2022-08-17T19:52:43.635Z,46.49
2022-08-17T19:55:21.000Z,46.62
2022-08-17T19:57:56.518Z,46.83
2022-08-17T20:00:23.420Z,46.84
2022-08-17T20:03:06.291Z,47.14
2022-08-17T20:05:54.695Z,46.47
2022-08-17T20:08:30.052Z,46.85
2022-08-17T20:10:59.871Z,47.15
2022-08-17T20:13:41.748Z,46.81
2022-08-17T20:16:10.025Z,46.71
2022-08-17T20:18:54.621Z,47.04
2022-08-17T20:21:31.237Z,46.80
2022-08-17T20:24:20.239Z,46.77
2022-08-17T20:27:09.899Z,46.88
2022-08-17T20:29:55.296Z,46.95
2022-08-17T20:32:26.211Z,46.88
2022-08-17T20:35:11.104Z,46.75
2022-08-17T20:37:43.200Z,46.75
2022-08-17T20:40:09.775Z,46.87
2022-08-17T20:42:36.922Z,46.70
2022-08-17T20:45:26.013Z,46.72
2022-08-17T20:48:21.634Z,47.20
2022-08-17T20:50:45.622Z,46.76
2022-08-17T20:53:13.577Z,46.88
2022-08-17T20:55:52.211Z,46.76
2022-08-17T20:58:30.796Z,46.88
2022-08-17T21:00:58.665Z,47.24
2022-08-17T21:03:26.801Z,47.45
2022-08-17T21:06:00.198Z,47.51
2022-08-17T21:08:30.033Z,47.37
2022-08-17T21:10:58.349Z,47.59
2022-08-17T21:13:37.677Z,47.49
2022-08-17T21:16:23.714Z,47.52
2022-08-17T21:19:02.473Z,47.45
2022-08-17T21:21:48.425Z,47.52
2022-08-17T21:24:52.584Z,47.74
2022-08-17T21:27:19.088Z,47.62
2022-08-17T21:30:10.278Z,47.88
2022-08-17T21:32:41.795Z,47.58
2022-08-17T21:35:12.299Z,47.55
2022-08-17T21:37:42.500Z,47.54
2022-08-17T21:40:18.370Z,47.69
2022-08-17T21:42:53.949Z,47.75
2022-08-17T21:45:30.281Z,47.77
2022-08-17T21:48:17.718Z,47.78
2022-08-17T21:50:47.533Z,47.57
2022-08-17T21:53:23.832Z,47.67
2022-08-17T21:55:52.351Z,47.21
2022-08-17T21:58:31.429Z,47.84
2022-08-17T22:01:28.661Z,47.32
2022-08-17T22:04:11.341Z,47.50
2022-08-17T22:06:41.526Z,47.75
2022-08-17T22:09:45.607Z,47.39
2022-08-17T22:12:15.141Z,47.54
2022-08-17T22:14:54.274Z,47.70
2022-08-17T22:17:27.053Z,47.54
2022-08-17T22:20:15.347Z,47.75
2022-08-17T22:23:12.622Z,47.29
2022-08-17T22:25:55.914Z,47.51
2022-08-17T22:28:37.731Z,47.81
2022-08-17T22:31:08.085Z,48.00
2022-08-17T22:33:44.632Z,47.86
2022-08-17T22:36:11.189Z,47.93
2022-08-17T22:38:38.184Z,47.77
2022-08-17T22:41:32.555Z,47.79
2022-08-17T22:44:07.720Z,47.76
2022-08-17T22:46:39.657Z,47.83
2022-08-17T22:49:06.371Z,47.97
2022-08-17T22:51:33.028Z,47.80
2022-08-17T22:54:20.521Z,48.22
2022-08-17T22:57:18.688Z,48.12
2022-08-17T22:59:49.184Z,48.08
2022-08-17T23:02:19.507Z,47.78
2022-08-17T23:04:57.494Z,47.89
2022-08-17T23:07:24.124Z,48.39
2022-08-17T23:09:51.835Z,48.01
2022-08-17T23:12:26.363Z,47.85
2022-08-17T23:14:58.415Z,47.98
2022-08-17T23:17:24.987Z,48.24
2022-08-17T23:19:51.821Z,47.94
2022-08-17T23:22:18.382Z,48.12
2022-08-17T23:24:46.839Z,48.22
2022-08-17T23:27:13.476Z,48.08
2022-08-17T23:29:42.183Z,48.31
2022-08-17T23:32:11.654Z,48.15
2022-08-17T23:34:39.990Z,48.34
2022-08-17T23:37:07.120Z,48.02
2022-08-17T23:39:34.668Z,48.06
2022-08-17T23:42:06.102Z,48.14
2022-08-17T23:44:33.790Z,48.09
2022-08-17T23:47:03.572Z,48.22
2022-08-17T23:49:31.286Z,48.37
2022-08-17T23:52:00.025Z,48.02
2022-08-17T23:54:33.656Z,48.04
2022-08-17T23:57:01.833Z,47.99
2022-08-17T23:59:29.223Z,48.39
